sensor_id;sensor_type;location;lat;lon;timestamp;temperature;humidity
9193;DHT22;4631;49.296;10.560;2024-03-02T00:00:02;6.90;99.90
9193;DHT22;4631;49.296;10.560;2024-03-02T00:02:39;6.90;99.90
9193;DHT22;4631;49.296;10.560;2024-03-02T00:05:06;6.80;99.90
9193;DHT22;4631;49.296;10.560;2024-03-02T00:07:34;6.80;99.90
9193;DHT22;4631;49.296;10.560;2024-03-02T00:10:00;6.80;99.90
9193;DHT22;4631;49.296;10.560;2024-03-02T00:12:28;6.80;99.90
9193;DHT22;4631;49.296;10.560;2024-03-02T00:14:55;6.80;99.90
9193;DHT22;4631;49.296;10.560;2024-03-02T00:17:24;6.80;99.90
9193;DHT22;4631;49.296;10.560;2024-03-02T00:19:50;6.90;99.90
9193;DHT22;4631;49.296;10.560;2024-03-02T00:22:17;6.80;99.90
9193;DHT22;4631;49.296;10.560;2024-03-02T00:24:45;6.80;99.90
9193;DHT22;4631;49.296;10.560;2024-03-02T00:27:12;6.80;99.90
9193;DHT22;4631;49.296;10.560;2024-03-02T00:29:40;6.70;99.90
9193;DHT22;4631;49.296;10.560;2024-03-02T00:32:09;6.70;99.90
9193;DHT22;4631;49.296;10.560;2024-03-02T00:34:38;6.70;99.90
9193;DHT22;4631;49.296;10.560;2024-03-02T00:37:05;6.70;99.90
9193;DHT22;4631;49.296;10.560;2024-03-02T00:39:32;6.70;99.90
9193;DHT22;4631;49.296;10.560;2024-03-02T00:42:00;6.60;99.90
9193;DHT22;4631;49.296;10.560;2024-03-02T00:44:27;6.70;99.90
9193;DHT22;4631;49.296;10.560;2024-03-02T00:46:56;6.60;99.90
9193;DHT22;4631;49.296;10.560;2024-03-02T00:49:23;6.60;99.90
9193;DHT22;4631;49.296;10.560;2024-03-02T00:51:52;6.60;99.90
9193;DHT22;4631;49.296;10.560;2024-03-02T00:54:19;6.60;99.90
9193;DHT22;4631;49.296;10.560;2024-03-02T00:56:45;6.60;99.90
9193;DHT22;4631;49.296;10.560;2024-03-02T00:59:15;6.50;99.90
9193;DHT22;4631;49.296;10.560;2024-03-02T01:01:41;6.60;99.90
9193;DHT22;4631;49.296;10.560;2024-03-02T01:04:08;6.60;99.90
9193;DHT22;4631;49.296;10.560;2024-03-02T01:06:35;6.50;99.90
9193;DHT22;4631;49.296;10.560;2024-03-02T01:09:02;6.50;99.90
9193;DHT22;4631;49.296;10.560;2024-03-02T01:11:29;6.60;99.90
9193;DHT22;4631;49.296;10.560;2024-03-02T01:13:56;6.50;99.90
9193;DHT22;4631;49.296;10.560;2024-03-02T01:16:24;6.60;99.90
9193;DHT22;4631;49.296;10.560;2024-03-02T01:18:51;6.60;99.90
9193;DHT22;4631;49.296;10.560;2024-03-02T01:21:17;6.60;99.90
9193;DHT22;4631;49.296;10.560;2024-03-02T01:23:44;6.60;99.90
9193;DHT22;4631;49.296;10.560;2024-03-02T01:26:11;6.60;99.90
9193;DHT22;4631;49.296;10.560;2024-03-02T01:28:37;6.50;99.90
9193;DHT22;4631;49.296;10.560;2024-03-02T01:31:04;6.50;99.90
9193;DHT22;4631;49.296;10.560;2024-03-02T01:33:32;6.50;99.90
9193;DHT22;4631;49.296;10.560;2024-03-02T01:35:58;6.60;99.90
9193;DHT22;4631;49.296;10.560;2024-03-02T01:38:25;6.60;99.90
9193;DHT22;4631;49.296;10.560;2024-03-02T01:40:53;6.60;99.90
9193;DHT22;4631;49.296;10.560;2024-03-02T01:43:22;6.50;99.90
9193;DHT22;4631;49.296;10.560;2024-03-02T01:45:48;6.50;99.90
9193;DHT22;4631;49.296;10.560;2024-03-02T01:48:15;6.60;99.90
9193;DHT22;4631;49.296;10.560;2024-03-02T01:50:43;6.50;99.90
9193;DHT22;4631;49.296;10.560;2024-03-02T01:53:09;6.50;99.90
9193;DHT22;4631;49.296;10.560;2024-03-02T01:55:36;6.50;99.90
9193;DHT22;4631;49.296;10.560;2024-03-02T01:58:03;6.50;99.90
9193;DHT22;4631;49.296;10.560;2024-03-02T02:00:30;6.50;99.90
9193;DHT22;4631;49.296;10.560;2024-03-02T02:02:57;6.40;99.90
9193;DHT22;4631;49.296;10.560;2024-03-02T02:05:24;6.40;99.90
9193;DHT22;4631;49.296;10.560;2024-03-02T02:07:52;6.40;99.90
9193;DHT22;4631;49.296;10.560;2024-03-02T02:10:19;6.40;99.90
9193;DHT22;4631;49.296;10.560;2024-03-02T02:12:45;6.40;99.90
9193;DHT22;4631;49.296;10.560;2024-03-02T02:15:22;6.40;99.90
9193;DHT22;4631;49.296;10.560;2024-03-02T02:17:49;6.40;99.90
9193;DHT22;4631;49.296;10.560;2024-03-02T02:20:15;6.30;99.90
9193;DHT22;4631;49.296;10.560;2024-03-02T02:22:53;6.40;99.90
9193;DHT22;4631;49.296;10.560;2024-03-02T02:25:20;6.40;99.90
9193;DHT22;4631;49.296;10.560;2024-03-02T02:27:46;6.40;99.90
9193;DHT22;4631;49.296;10.560;2024-03-02T02:30:13;6.40;99.90
9193;DHT22;4631;49.296;10.560;2024-03-02T02:32:40;6.40;99.90
9193;DHT22;4631;49.296;10.560;2024-03-02T02:35:06;6.40;99.90
9193;DHT22;4631;49.296;10.560;2024-03-02T02:37:34;6.50;99.90
9193;DHT22;4631;49.296;10.560;2024-03-02T02:40:02;6.50;99.90
9193;DHT22;4631;49.296;10.560;2024-03-02T02:42:30;6.40;99.90
9193;DHT22;4631;49.296;10.560;2024-03-02T02:44:56;6.40;99.90
9193;DHT22;4631;49.296;10.560;2024-03-02T02:47:23;6.40;99.90
9193;DHT22;4631;49.296;10.560;2024-03-02T02:49:50;6.50;99.90
9193;DHT22;4631;49.296;10.560;2024-03-02T02:52:16;6.50;99.90
9193;DHT22;4631;49.296;10.560;2024-03-02T02:54:43;6.40;99.90
9193;DHT22;4631;49.296;10.560;2024-03-02T02:57:11;6.40;99.90
9193;DHT22;4631;49.296;10.560;2024-03-02T02:59:38;6.40;99.90
9193;DHT22;4631;49.296;10.560;2024-03-02T03:02:05;6.40;99.90
9193;DHT22;4631;49.296;10.560;2024-03-02T03:04:31;6.40;99.90
9193;DHT22;4631;49.296;10.560;2024-03-02T03:06:58;6.40;99.90
9193;DHT22;4631;49.296;10.560;2024-03-02T03:09:25;6.40;99.90
9193;DHT22;4631;49.296;10.560;2024-03-02T03:11:51;6.40;99.90
9193;DHT22;4631;49.296;10.560;2024-03-02T03:14:19;6.40;99.90
9193;DHT22;4631;49.296;10.560;2024-03-02T03:16:46;6.50;99.90
9193;DHT22;4631;49.296;10.560;2024-03-02T03:19:13;6.50;99.90
9193;DHT22;4631;49.296;10.560;2024-03-02T03:21:40;6.50;99.90
9193;DHT22;4631;49.296;10.560;2024-03-02T03:24:07;6.50;99.90
9193;DHT22;4631;49.296;10.560;2024-03-02T03:26:35;6.50;99.90
9193;DHT22;4631;49.296;10.560;2024-03-02T03:29:01;6.40;99.90
9193;DHT22;4631;49.296;10.560;2024-03-02T03:31:30;6.40;99.90
9193;DHT22;4631;49.296;10.560;2024-03-02T03:33:56;6.50;99.90
9193;DHT22;4631;49.296;10.560;2024-03-02T03:36:23;6.50;99.90
9193;DHT22;4631;49.296;10.560;2024-03-02T03:38:50;6.50;99.90
9193;DHT22;4631;49.296;10.560;2024-03-02T03:41:17;6.40;99.90
9193;DHT22;4631;49.296;10.560;2024-03-02T03:43:43;6.40;99.90
9193;DHT22;4631;49.296;10.560;2024-03-02T03:46:10;6.50;99.90
9193;DHT22;4631;49.296;10.560;2024-03-02T03:48:40;6.40;99.90
9193;DHT22;4631;49.296;10.560;2024-03-02T03:51:07;6.40;99.90
9193;DHT22;4631;49.296;10.560;2024-03-02T03:53:34;6.40;99.90
9193;DHT22;4631;49.296;10.560;2024-03-02T03:56:00;6.30;99.90
9193;DHT22;4631;49.296;10.560;2024-03-02T03:58:27;6.30;99.90
9193;DHT22;4631;49.296;10.560;2024-03-02T04:00:53;6.30;99.90
9193;DHT22;4631;49.296;10.560;2024-03-02T04:03:20;6.20;99.90
9193;DHT22;4631;49.296;10.560;2024-03-02T04:05:48;6.30;99.90
9193;DHT22;4631;49.296;10.560;2024-03-02T04:08:15;6.20;99.90
9193;DHT22;4631;49.296;10.560;2024-03-02T04:10:42;6.20;99.90
9193;DHT22;4631;49.296;10.560;2024-03-02T04:13:08;6.20;99.90
9193;DHT22;4631;49.296;10.560;2024-03-02T04:15:35;6.10;99.90
9193;DHT22;4631;49.296;10.560;2024-03-02T04:18:02;6.10;99.90
9193;DHT22;4631;49.296;10.560;2024-03-02T04:20:28;6.10;99.90
9193;DHT22;4631;49.296;10.560;2024-03-02T04:22:57;6.10;99.90
9193;DHT22;4631;49.296;10.560;2024-03-02T04:25:24;6.10;99.90
9193;DHT22;4631;49.296;10.560;2024-03-02T04:27:50;6.10;99.90
9193;DHT22;4631;49.296;10.560;2024-03-02T04:30:17;6.10;99.90
9193;DHT22;4631;49.296;10.560;2024-03-02T04:32:43;6.10;99.90
9193;DHT22;4631;49.296;10.560;2024-03-02T04:35:11;6.20;99.90
9193;DHT22;4631;49.296;10.560;2024-03-02T04:37:39;6.10;99.90
9193;DHT22;4631;49.296;10.560;2024-03-02T04:40:07;6.10;99.90
9193;DHT22;4631;49.296;10.560;2024-03-02T04:42:34;6.10;99.90
9193;DHT22;4631;49.296;10.560;2024-03-02T04:45:01;6.00;99.90
9193;DHT22;4631;49.296;10.560;2024-03-02T04:47:28;6.10;99.90
9193;DHT22;4631;49.296;10.560;2024-03-02T04:49:55;6.00;99.90
9193;DHT22;4631;49.296;10.560;2024-03-02T04:52:22;6.00;99.90
9193;DHT22;4631;49.296;10.560;2024-03-02T04:54:48;6.00;99.90
9193;DHT22;4631;49.296;10.560;2024-03-02T04:57:34;6.00;99.90
9193;DHT22;4631;49.296;10.560;2024-03-02T05:00:00;6.00;99.90
9193;DHT22;4631;49.296;10.560;2024-03-02T05:02:27;5.90;99.90
9193;DHT22;4631;49.296;10.560;2024-03-02T05:04:53;5.90;99.90
9193;DHT22;4631;49.296;10.560;2024-03-02T05:07:20;5.90;99.90
9193;DHT22;4631;49.296;10.560;2024-03-02T05:09:47;5.90;99.90
9193;DHT22;4631;49.296;10.560;2024-03-02T05:12:13;5.90;99.90
9193;DHT22;4631;49.296;10.560;2024-03-02T05:14:58;5.80;99.90
9193;DHT22;4631;49.296;10.560;2024-03-02T05:17:25;5.80;99.90
9193;DHT22;4631;49.296;10.560;2024-03-02T05:19:51;5.90;99.90
9193;DHT22;4631;49.296;10.560;2024-03-02T05:22:18;5.80;99.90
9193;DHT22;4631;49.296;10.560;2024-03-02T05:24:45;5.80;99.90
9193;DHT22;4631;49.296;10.560;2024-03-02T05:27:11;5.80;99.90
9193;DHT22;4631;49.296;10.560;2024-03-02T05:29:38;5.80;99.90
9193;DHT22;4631;49.296;10.560;2024-03-02T05:32:06;5.80;99.90
9193;DHT22;4631;49.296;10.560;2024-03-02T05:34:33;5.80;99.90
9193;DHT22;4631;49.296;10.560;2024-03-02T05:37:00;5.70;99.90
9193;DHT22;4631;49.296;10.560;2024-03-02T05:39:27;5.70;99.90
9193;DHT22;4631;49.296;10.560;2024-03-02T05:41:54;5.70;99.90
9193;DHT22;4631;49.296;10.560;2024-03-02T05:44:20;5.70;99.90
9193;DHT22;4631;49.296;10.560;2024-03-02T05:46:47;5.60;99.90
9193;DHT22;4631;49.296;10.560;2024-03-02T05:49:15;5.70;99.90
9193;DHT22;4631;49.296;10.560;2024-03-02T05:51:42;5.60;99.90
9193;DHT22;4631;49.296;10.560;2024-03-02T05:54:09;5.60;99.90
9193;DHT22;4631;49.296;10.560;2024-03-02T05:56:35;5.60;99.90
9193;DHT22;4631;49.296;10.560;2024-03-02T05:59:02;5.50;99.90
9193;DHT22;4631;49.296;10.560;2024-03-02T06:01:37;5.50;99.90
9193;DHT22;4631;49.296;10.560;2024-03-02T06:04:04;5.60;99.90
9193;DHT22;4631;49.296;10.560;2024-03-02T06:06:32;5.50;99.90
9193;DHT22;4631;49.296;10.560;2024-03-02T06:08:59;5.50;99.90
9193;DHT22;4631;49.296;10.560;2024-03-02T06:11:26;5.50;99.90
9193;DHT22;4631;49.296;10.560;2024-03-02T06:13:52;5.50;99.90
9193;DHT22;4631;49.296;10.560;2024-03-02T06:16:19;5.50;99.90
9193;DHT22;4631;49.296;10.560;2024-03-02T06:18:45;5.50;99.90
9193;DHT22;4631;49.296;10.560;2024-03-02T06:21:12;5.50;99.90
9193;DHT22;4631;49.296;10.560;2024-03-02T06:23:40;5.50;99.90
9193;DHT22;4631;49.296;10.560;2024-03-02T06:26:07;5.50;99.90
9193;DHT22;4631;49.296;10.560;2024-03-02T06:28:33;5.50;99.90
9193;DHT22;4631;49.296;10.560;2024-03-02T06:31:00;5.50;99.90
9193;DHT22;4631;49.296;10.560;2024-03-02T06:33:27;5.60;99.90
9193;DHT22;4631;49.296;10.560;2024-03-02T06:35:54;5.60;99.90
9193;DHT22;4631;49.296;10.560;2024-03-02T06:38:20;5.60;99.90
9193;DHT22;4631;49.296;10.560;2024-03-02T06:40:48;5.60;99.90
9193;DHT22;4631;49.296;10.560;2024-03-02T06:43:15;5.60;99.90
9193;DHT22;4631;49.296;10.560;2024-03-02T06:45:41;5.60;99.90
9193;DHT22;4631;49.296;10.560;2024-03-02T06:48:08;5.60;99.90
9193;DHT22;4631;49.296;10.560;2024-03-02T06:50:34;5.60;99.90
9193;DHT22;4631;49.296;10.560;2024-03-02T06:53:01;5.60;99.90
9193;DHT22;4631;49.296;10.560;2024-03-02T06:55:29;5.60;99.90
9193;DHT22;4631;49.296;10.560;2024-03-02T06:57:57;5.70;99.90
9193;DHT22;4631;49.296;10.560;2024-03-02T07:00:24;5.70;99.90
9193;DHT22;4631;49.296;10.560;2024-03-02T07:02:50;5.70;99.90
9193;DHT22;4631;49.296;10.560;2024-03-02T07:05:17;5.80;99.90
9193;DHT22;4631;49.296;10.560;2024-03-02T07:07:44;5.80;99.90
9193;DHT22;4631;49.296;10.560;2024-03-02T07:10:10;5.80;99.90
9193;DHT22;4631;49.296;10.560;2024-03-02T07:12:37;5.80;99.90
9193;DHT22;4631;49.296;10.560;2024-03-02T07:15:06;5.90;99.90
9193;DHT22;4631;49.296;10.560;2024-03-02T07:17:54;5.90;99.90
9193;DHT22;4631;49.296;10.560;2024-03-02T07:20:21;5.90;99.90
9193;DHT22;4631;49.296;10.560;2024-03-02T07:22:47;6.00;99.90
9193;DHT22;4631;49.296;10.560;2024-03-02T07:25:14;6.00;99.90
9193;DHT22;4631;49.296;10.560;2024-03-02T07:27:41;6.00;99.90
9193;DHT22;4631;49.296;10.560;2024-03-02T07:30:13;6.10;99.90
9193;DHT22;4631;49.296;10.560;2024-03-02T07:32:41;6.10;99.90
9193;DHT22;4631;49.296;10.560;2024-03-02T07:35:11;6.20;99.90
9193;DHT22;4631;49.296;10.560;2024-03-02T07:37:38;6.30;99.90
9193;DHT22;4631;49.296;10.560;2024-03-02T07:40:04;6.30;99.90
9193;DHT22;4631;49.296;10.560;2024-03-02T07:42:34;6.30;99.90
9193;DHT22;4631;49.296;10.560;2024-03-02T07:45:01;6.40;99.90
9193;DHT22;4631;49.296;10.560;2024-03-02T07:47:29;6.40;99.90
9193;DHT22;4631;49.296;10.560;2024-03-02T07:49:55;6.50;99.90
9193;DHT22;4631;49.296;10.560;2024-03-02T07:52:22;6.50;99.90
9193;DHT22;4631;49.296;10.560;2024-03-02T07:54:49;6.60;99.90
9193;DHT22;4631;49.296;10.560;2024-03-02T07:57:15;6.60;99.90
9193;DHT22;4631;49.296;10.560;2024-03-02T07:59:42;6.70;99.90
9193;DHT22;4631;49.296;10.560;2024-03-02T08:02:09;6.70;99.90
9193;DHT22;4631;49.296;10.560;2024-03-02T08:04:37;6.80;99.90
9193;DHT22;4631;49.296;10.560;2024-03-02T08:07:04;6.80;99.90
9193;DHT22;4631;49.296;10.560;2024-03-02T08:09:31;6.80;99.90
9193;DHT22;4631;49.296;10.560;2024-03-02T08:11:57;6.80;99.90
9193;DHT22;4631;49.296;10.560;2024-03-02T08:14:24;6.90;99.90
9193;DHT22;4631;49.296;10.560;2024-03-02T08:16:50;6.90;99.90
9193;DHT22;4631;49.296;10.560;2024-03-02T08:19:17;7.00;99.90
9193;DHT22;4631;49.296;10.560;2024-03-02T08:21:45;7.00;99.90
9193;DHT22;4631;49.296;10.560;2024-03-02T08:24:12;7.00;99.90
9193;DHT22;4631;49.296;10.560;2024-03-02T08:26:38;7.10;99.90
9193;DHT22;4631;49.296;10.560;2024-03-02T08:29:05;7.10;99.90
9193;DHT22;4631;49.296;10.560;2024-03-02T08:31:31;7.10;99.90
9193;DHT22;4631;49.296;10.560;2024-03-02T08:33:58;7.20;99.90
9193;DHT22;4631;49.296;10.560;2024-03-02T08:36:25;7.20;99.90
9193;DHT22;4631;49.296;10.560;2024-03-02T08:38:54;7.20;99.90
9193;DHT22;4631;49.296;10.560;2024-03-02T08:41:20;7.20;99.90
9193;DHT22;4631;49.296;10.560;2024-03-02T08:43:47;7.30;99.90
9193;DHT22;4631;49.296;10.560;2024-03-02T08:46:13;7.30;99.90
9193;DHT22;4631;49.296;10.560;2024-03-02T08:48:40;7.30;99.90
9193;DHT22;4631;49.296;10.560;2024-03-02T08:51:07;7.40;99.90
9193;DHT22;4631;49.296;10.560;2024-03-02T08:53:35;7.50;99.90
9193;DHT22;4631;49.296;10.560;2024-03-02T08:56:04;7.50;99.90
9193;DHT22;4631;49.296;10.560;2024-03-02T08:58:31;7.60;99.90
9193;DHT22;4631;49.296;10.560;2024-03-02T09:00:58;7.60;99.90
9193;DHT22;4631;49.296;10.560;2024-03-02T09:03:24;7.70;99.90
9193;DHT22;4631;49.296;10.560;2024-03-02T09:05:51;7.80;99.90
9193;DHT22;4631;49.296;10.560;2024-03-02T09:08:18;7.80;99.90
9193;DHT22;4631;49.296;10.560;2024-03-02T09:10:44;7.90;99.90
9193;DHT22;4631;49.296;10.560;2024-03-02T09:13:12;8.00;99.90
9193;DHT22;4631;49.296;10.560;2024-03-02T09:15:39;8.10;99.90
9193;DHT22;4631;49.296;10.560;2024-03-02T09:18:06;8.10;99.90
9193;DHT22;4631;49.296;10.560;2024-03-02T09:20:33;8.10;99.90
9193;DHT22;4631;49.296;10.560;2024-03-02T09:22:59;8.20;99.90
9193;DHT22;4631;49.296;10.560;2024-03-02T09:25:26;8.30;99.90
9193;DHT22;4631;49.296;10.560;2024-03-02T09:27:53;8.30;99.90
9193;DHT22;4631;49.296;10.560;2024-03-02T09:30:21;8.40;99.90
9193;DHT22;4631;49.296;10.560;2024-03-02T09:32:48;8.40;99.90
9193;DHT22;4631;49.296;10.560;2024-03-02T09:35:15;8.50;99.90
9193;DHT22;4631;49.296;10.560;2024-03-02T09:37:41;8.60;99.90
9193;DHT22;4631;49.296;10.560;2024-03-02T09:40:08;8.70;99.90
9193;DHT22;4631;49.296;10.560;2024-03-02T09:42:35;8.70;99.90
9193;DHT22;4631;49.296;10.560;2024-03-02T09:45:02;8.80;99.90
9193;DHT22;4631;49.296;10.560;2024-03-02T09:47:31;8.80;99.90
9193;DHT22;4631;49.296;10.560;2024-03-02T09:49:57;8.90;99.90
9193;DHT22;4631;49.296;10.560;2024-03-02T09:52:24;9.00;99.90
9193;DHT22;4631;49.296;10.560;2024-03-02T09:54:51;9.10;99.90
9193;DHT22;4631;49.296;10.560;2024-03-02T09:57:17;9.20;99.90
9193;DHT22;4631;49.296;10.560;2024-03-02T09:59:44;9.30;99.90
9193;DHT22;4631;49.296;10.560;2024-03-02T10:02:11;9.40;99.90
9193;DHT22;4631;49.296;10.560;2024-03-02T10:04:39;9.50;99.90
9193;DHT22;4631;49.296;10.560;2024-03-02T10:07:09;9.50;99.90
9193;DHT22;4631;49.296;10.560;2024-03-02T10:09:36;9.60;99.90
9193;DHT22;4631;49.296;10.560;2024-03-02T10:12:03;9.60;99.90
9193;DHT22;4631;49.296;10.560;2024-03-02T10:14:30;9.70;99.90
9193;DHT22;4631;49.296;10.560;2024-03-02T10:17:01;9.80;99.90
9193;DHT22;4631;49.296;10.560;2024-03-02T10:19:28;9.90;99.90
9193;DHT22;4631;49.296;10.560;2024-03-02T10:21:59;10.00;99.90
9193;DHT22;4631;49.296;10.560;2024-03-02T10:24:26;10.10;99.90
9193;DHT22;4631;49.296;10.560;2024-03-02T10:26:52;10.20;99.90
9193;DHT22;4631;49.296;10.560;2024-03-02T10:29:19;10.30;99.90
9193;DHT22;4631;49.296;10.560;2024-03-02T10:31:46;10.40;99.90
9193;DHT22;4631;49.296;10.560;2024-03-02T10:34:13;10.50;99.90
9193;DHT22;4631;49.296;10.560;2024-03-02T10:36:40;10.50;99.90
9193;DHT22;4631;49.296;10.560;2024-03-02T10:39:09;10.60;99.90
9193;DHT22;4631;49.296;10.560;2024-03-02T10:41:36;10.60;99.90
9193;DHT22;4631;49.296;10.560;2024-03-02T10:44:04;10.70;99.90
9193;DHT22;4631;49.296;10.560;2024-03-02T10:46:31;10.70;99.90
9193;DHT22;4631;49.296;10.560;2024-03-02T10:48:58;10.80;99.90
9193;DHT22;4631;49.296;10.560;2024-03-02T10:51:25;10.90;99.90
9193;DHT22;4631;49.296;10.560;2024-03-02T10:53:53;11.00;99.90
9193;DHT22;4631;49.296;10.560;2024-03-02T10:56:26;11.20;99.90
9193;DHT22;4631;49.296;10.560;2024-03-02T10:58:55;11.20;99.90
9193;DHT22;4631;49.296;10.560;2024-03-02T11:01:25;11.30;99.90
9193;DHT22;4631;49.296;10.560;2024-03-02T11:03:53;11.40;99.90
9193;DHT22;4631;49.296;10.560;2024-03-02T11:06:20;11.40;99.90
9193;DHT22;4631;49.296;10.560;2024-03-02T11:08:49;11.50;99.90
9193;DHT22;4631;49.296;10.560;2024-03-02T11:11:18;11.50;99.90
9193;DHT22;4631;49.296;10.560;2024-03-02T11:13:47;11.60;99.90
9193;DHT22;4631;49.296;10.560;2024-03-02T11:16:16;11.70;99.90
9193;DHT22;4631;49.296;10.560;2024-03-02T11:18:45;11.80;99.90
9193;DHT22;4631;49.296;10.560;2024-03-02T11:21:12;12.00;99.90
9193;DHT22;4631;49.296;10.560;2024-03-02T11:23:39;12.10;99.90
9193;DHT22;4631;49.296;10.560;2024-03-02T11:26:18;12.10;99.90
9193;DHT22;4631;49.296;10.560;2024-03-02T11:28:46;12.20;99.90
9193;DHT22;4631;49.296;10.560;2024-03-02T11:31:13;12.30;99.90
9193;DHT22;4631;49.296;10.560;2024-03-02T11:33:40;12.40;99.90
9193;DHT22;4631;49.296;10.560;2024-03-02T11:36:07;12.50;99.90
9193;DHT22;4631;49.296;10.560;2024-03-02T11:38:35;12.50;99.90
9193;DHT22;4631;49.296;10.560;2024-03-02T11:41:02;12.60;99.90
9193;DHT22;4631;49.296;10.560;2024-03-02T11:43:29;12.70;99.90
9193;DHT22;4631;49.296;10.560;2024-03-02T11:45:59;12.70;99.90
9193;DHT22;4631;49.296;10.560;2024-03-02T11:48:26;12.80;99.90
9193;DHT22;4631;49.296;10.560;2024-03-02T11:50:53;12.90;99.90
9193;DHT22;4631;49.296;10.560;2024-03-02T11:53:20;13.00;99.90
9193;DHT22;4631;49.296;10.560;2024-03-02T11:55:47;13.00;99.90
9193;DHT22;4631;49.296;10.560;2024-03-02T11:58:14;13.10;99.90
9193;DHT22;4631;49.296;10.560;2024-03-02T12:00:41;13.20;99.90
9193;DHT22;4631;49.296;10.560;2024-03-02T12:03:10;13.20;99.90
9193;DHT22;4631;49.296;10.560;2024-03-02T12:05:38;13.20;99.90
9193;DHT22;4631;49.296;10.560;2024-03-02T12:08:06;13.30;99.90
9193;DHT22;4631;49.296;10.560;2024-03-02T12:10:33;13.50;99.90
9193;DHT22;4631;49.296;10.560;2024-03-02T12:13:00;13.60;99.90
9193;DHT22;4631;49.296;10.560;2024-03-02T12:15:28;13.60;99.90
9193;DHT22;4631;49.296;10.560;2024-03-02T12:17:55;13.60;99.90
9193;DHT22;4631;49.296;10.560;2024-03-02T12:20:23;13.40;99.90
9193;DHT22;4631;49.296;10.560;2024-03-02T12:22:51;13.50;99.90
9193;DHT22;4631;49.296;10.560;2024-03-02T12:25:19;13.80;99.90
9193;DHT22;4631;49.296;10.560;2024-03-02T12:27:45;14.10;99.90
9193;DHT22;4631;49.296;10.560;2024-03-02T12:30:12;14.30;99.90
9193;DHT22;4631;49.296;10.560;2024-03-02T12:32:39;14.20;99.90
9193;DHT22;4631;49.296;10.560;2024-03-02T12:35:06;14.30;99.90
9193;DHT22;4631;49.296;10.560;2024-03-02T12:37:37;14.40;99.90
9193;DHT22;4631;49.296;10.560;2024-03-02T12:40:09;14.60;99.90
9193;DHT22;4631;49.296;10.560;2024-03-02T12:42:36;15.00;99.90
9193;DHT22;4631;49.296;10.560;2024-03-02T12:45:02;15.20;99.90
9193;DHT22;4631;49.296;10.560;2024-03-02T12:47:29;15.30;99.90
9193;DHT22;4631;49.296;10.560;2024-03-02T12:49:56;15.40;99.90
9193;DHT22;4631;49.296;10.560;2024-03-02T12:52:22;15.60;99.90
9193;DHT22;4631;49.296;10.560;2024-03-02T12:54:50;15.80;99.90
9193;DHT22;4631;49.296;10.560;2024-03-02T12:57:18;16.00;99.90
9193;DHT22;4631;49.296;10.560;2024-03-02T12:59:45;16.00;99.90
9193;DHT22;4631;49.296;10.560;2024-03-02T13:02:16;16.00;99.90
9193;DHT22;4631;49.296;10.560;2024-03-02T13:04:43;16.20;99.90
9193;DHT22;4631;49.296;10.560;2024-03-02T13:07:09;16.20;99.90
9193;DHT22;4631;49.296;10.560;2024-03-02T13:09:37;16.40;99.90
9193;DHT22;4631;49.296;10.560;2024-03-02T13:12:05;16.50;99.90
9193;DHT22;4631;49.296;10.560;2024-03-02T13:14:32;16.50;99.90
9193;DHT22;4631;49.296;10.560;2024-03-02T13:16:59;16.60;99.90
9193;DHT22;4631;49.296;10.560;2024-03-02T13:19:26;16.70;99.90
9193;DHT22;4631;49.296;10.560;2024-03-02T13:21:56;16.80;99.90
9193;DHT22;4631;49.296;10.560;2024-03-02T13:24:23;16.90;99.90
9193;DHT22;4631;49.296;10.560;2024-03-02T13:26:53;16.90;99.90
9193;DHT22;4631;49.296;10.560;2024-03-02T13:29:24;16.90;99.90
9193;DHT22;4631;49.296;10.560;2024-03-02T13:31:50;16.60;99.90
9193;DHT22;4631;49.296;10.560;2024-03-02T13:34:18;16.30;99.90
9193;DHT22;4631;49.296;10.560;2024-03-02T13:36:44;16.30;99.90
9193;DHT22;4631;49.296;10.560;2024-03-02T13:39:11;16.40;99.90
9193;DHT22;4631;49.296;10.560;2024-03-02T13:41:40;16.60;99.90
9193;DHT22;4631;49.296;10.560;2024-03-02T13:44:07;16.60;99.90
9193;DHT22;4631;49.296;10.560;2024-03-02T13:46:35;16.60;99.90
9193;DHT22;4631;49.296;10.560;2024-03-02T13:49:02;16.70;99.90
9193;DHT22;4631;49.296;10.560;2024-03-02T13:51:29;16.80;99.90
9193;DHT22;4631;49.296;10.560;2024-03-02T13:53:57;16.90;99.90
9193;DHT22;4631;49.296;10.560;2024-03-02T13:56:24;16.90;99.90
9193;DHT22;4631;49.296;10.560;2024-03-02T13:58:50;17.00;99.90
9193;DHT22;4631;49.296;10.560;2024-03-02T14:01:17;17.10;99.90
9193;DHT22;4631;49.296;10.560;2024-03-02T14:03:45;17.40;99.90
9193;DHT22;4631;49.296;10.560;2024-03-02T14:06:12;17.40;99.90
9193;DHT22;4631;49.296;10.560;2024-03-02T14:08:39;17.50;99.90
9193;DHT22;4631;49.296;10.560;2024-03-02T14:11:05;17.40;99.90
9193;DHT22;4631;49.296;10.560;2024-03-02T14:13:32;17.10;99.90
9193;DHT22;4631;49.296;10.560;2024-03-02T14:15:59;16.90;99.90
9193;DHT22;4631;49.296;10.560;2024-03-02T14:18:26;16.70;99.90
9193;DHT22;4631;49.296;10.560;2024-03-02T14:20:53;16.40;99.90
9193;DHT22;4631;49.296;10.560;2024-03-02T14:23:21;16.20;99.90
9193;DHT22;4631;49.296;10.560;2024-03-02T14:25:48;16.30;99.90
9193;DHT22;4631;49.296;10.560;2024-03-02T14:28:14;16.50;99.90
9193;DHT22;4631;49.296;10.560;2024-03-02T14:30:41;16.70;99.90
9193;DHT22;4631;49.296;10.560;2024-03-02T14:33:08;16.90;99.90
9193;DHT22;4631;49.296;10.560;2024-03-02T14:35:36;17.20;99.90
9193;DHT22;4631;49.296;10.560;2024-03-02T14:38:04;17.00;99.90
9193;DHT22;4631;49.296;10.560;2024-03-02T14:40:31;16.90;99.90
9193;DHT22;4631;49.296;10.560;2024-03-02T14:42:57;17.00;99.90
9193;DHT22;4631;49.296;10.560;2024-03-02T14:45:24;17.20;99.90
9193;DHT22;4631;49.296;10.560;2024-03-02T14:47:51;17.30;99.90
9193;DHT22;4631;49.296;10.560;2024-03-02T14:50:18;17.50;99.90
9193;DHT22;4631;49.296;10.560;2024-03-02T14:52:45;17.70;99.90
9193;DHT22;4631;49.296;10.560;2024-03-02T14:55:13;17.80;99.90
9193;DHT22;4631;49.296;10.560;2024-03-02T14:57:39;18.00;99.90
9193;DHT22;4631;49.296;10.560;2024-03-02T15:00:06;18.00;99.90
9193;DHT22;4631;49.296;10.560;2024-03-02T15:02:33;18.00;99.90
9193;DHT22;4631;49.296;10.560;2024-03-02T15:05:00;17.80;99.90
9193;DHT22;4631;49.296;10.560;2024-03-02T15:07:27;17.50;99.90
9193;DHT22;4631;49.296;10.560;2024-03-02T15:09:53;17.30;99.90
9193;DHT22;4631;49.296;10.560;2024-03-02T15:12:22;17.10;99.90
9193;DHT22;4631;49.296;10.560;2024-03-02T15:14:48;17.00;99.90
9193;DHT22;4631;49.296;10.560;2024-03-02T15:17:15;16.80;99.90
9193;DHT22;4631;49.296;10.560;2024-03-02T15:19:42;16.50;99.90
9193;DHT22;4631;49.296;10.560;2024-03-02T15:22:09;16.10;99.90
9193;DHT22;4631;49.296;10.560;2024-03-02T15:24:36;15.80;99.90
9193;DHT22;4631;49.296;10.560;2024-03-02T15:27:02;15.90;99.90
9193;DHT22;4631;49.296;10.560;2024-03-02T15:29:32;15.80;99.90
9193;DHT22;4631;49.296;10.560;2024-03-02T15:31:59;15.60;99.90
9193;DHT22;4631;49.296;10.560;2024-03-02T15:34:25;15.30;99.90
9193;DHT22;4631;49.296;10.560;2024-03-02T15:36:52;15.00;99.90
9193;DHT22;4631;49.296;10.560;2024-03-02T15:39:19;14.80;99.90
9193;DHT22;4631;49.296;10.560;2024-03-02T15:41:45;14.70;99.90
9193;DHT22;4631;49.296;10.560;2024-03-02T15:44:12;14.60;99.90
9193;DHT22;4631;49.296;10.560;2024-03-02T15:46:40;14.60;99.90
9193;DHT22;4631;49.296;10.560;2024-03-02T15:49:07;14.40;99.90
9193;DHT22;4631;49.296;10.560;2024-03-02T15:51:33;14.30;99.90
9193;DHT22;4631;49.296;10.560;2024-03-02T15:54:02;14.20;99.90
9193;DHT22;4631;49.296;10.560;2024-03-02T15:56:29;13.90;99.90